Time;durP1;ratioP1;P1;durP2;ratioP2;P2;SDS_P1;SDS_P2;PMS_P1;PMS_P2;Temp;Humidity;BMP_temperature;BMP_pressure;BME280_temperature;BME280_humidity;BME280_pressure;Samples;Min_cycle;Max_cycle;Signal;HPM_P1;HPM_P2
2021/04/21 00:01:03;;;;;;;18.60;11.50;;;8.20;99.90;;;;;;5114782;28;20168;-83
2021/04/21 00:03:30;;;;;;;19.60;11.75;;;8.20;99.90;;;;;;5102405;28;20028;-84
2021/04/21 00:05:57;;;;;;;22.20;11.38;;;8.10;99.90;;;;;;5104296;28;20024;-84
2021/04/21 00:08:25;;;;;;;18.15;11.57;;;8.10;99.90;;;;;;5096299;28;20047;-84
2021/04/21 00:10:53;;;;;;;19.30;11.35;;;8.10;99.90;;;;;;5112042;28;20027;-84
2021/04/21 00:13:21;;;;;;;21.83;12.55;;;8.10;99.90;;;;;;5111820;28;20143;-84
2021/04/21 00:15:48;;;;;;;20.38;11.82;;;8.10;99.90;;;;;;5108025;28;20028;-84
2021/04/21 00:18:14;;;;;;;17.10;11.32;;;8.10;99.90;;;;;;5107743;28;20032;-84
2021/04/21 00:20:41;;;;;;;17.65;11.10;;;8.10;99.90;;;;;;5099964;28;20021;-83
2021/04/21 00:23:11;;;;;;;16.95;11.00;;;8.00;99.90;;;;;;5083617;28;20024;-84
2021/04/21 00:25:38;;;;;;;16.73;11.20;;;7.90;99.90;;;;;;5106127;28;20019;-84
2021/04/21 00:28:05;;;;;;;21.98;12.10;;;7.90;99.90;;;;;;5103306;28;20028;-83
2021/04/21 00:30:32;;;;;;;19.65;11.57;;;7.90;99.90;;;;;;5095747;28;20031;-84
2021/04/21 00:32:59;;;;;;;18.33;11.75;;;8.00;99.90;;;;;;5095456;28;20541;-84
2021/04/21 00:35:34;;;;;;;19.73;12.48;;;7.80;99.90;;;;;;5106021;28;20054;-84
2021/04/21 00:38:04;;;;;;;19.30;12.23;;;7.80;99.90;;;;;;5119447;28;20027;-84
2021/04/21 00:40:58;;;;;;;18.00;11.55;;;7.80;99.90;;;;;;5119418;28;20032;-84
2021/04/21 00:43:42;;;;;;;20.67;12.40;;;7.70;99.90;;;;;;5100451;28;20031;-84
2021/04/21 00:46:21;;;;;;;20.90;12.52;;;7.70;99.90;;;;;;5108571;28;20039;-83
2021/04/21 00:49:04;;;;;;;18.40;11.85;;;7.50;99.90;;;;;;5115579;28;20027;-83
2021/04/21 00:51:55;;;;;;;19.42;12.25;;;7.60;99.90;;;;;;5086700;28;20126;-83
2021/04/21 00:54:47;;;;;;;18.75;11.75;;;7.60;99.90;;;;;;5099277;28;20030;-84
2021/04/21 00:57:41;;;;;;;22.27;12.55;;;7.50;99.90;;;;;;5101389;28;20028;-84
2021/04/21 01:00:21;;;;;;;21.65;12.90;;;7.50;99.90;;;;;;5099476;28;20024;-84
2021/04/21 01:02:55;;;;;;;20.90;12.43;;;7.50;99.90;;;;;;5108444;28;20026;-84
2021/04/21 01:05:30;;;;;;;20.10;11.88;;;7.70;99.90;;;;;;5116120;28;20028;-83
2021/04/21 01:08:02;;;;;;;20.52;12.68;;;7.40;99.90;;;;;;5106256;28;20108;-84
2021/04/21 01:10:32;;;;;;;21.05;12.43;;;7.60;99.90;;;;;;5116997;28;20075;-84
2021/04/21 01:13:00;;;;;;;18.77;12.32;;;7.50;99.90;;;;;;5103882;28;20086;-84
2021/04/21 01:15:27;;;;;;;18.95;12.35;;;7.40;99.90;;;;;;5102757;28;20043;-84
2021/04/21 01:17:54;;;;;;;15.93;11.05;;;7.50;99.90;;;;;;5106305;28;20024;-84
2021/04/21 01:20:29;;;;;;;21.10;11.93;;;7.40;99.90;;;;;;5099621;28;20020;-83
2021/04/21 01:23:41;;;;;;;21.13;12.50;;;7.40;99.90;;;;;;5113294;28;20824;-84
2021/04/21 01:26:12;;;;;;;21.13;12.07;;;7.20;99.90;;;;;;5108423;28;20027;-84
2021/04/21 01:28:50;;;;;;;20.77;11.30;;;7.30;99.90;;;;;;5104729;28;20031;-84
2021/04/21 01:31:25;;;;;;;17.40;11.30;;;7.40;99.90;;;;;;5101414;28;20274;-84
2021/04/21 01:33:53;;;;;;;20.23;11.53;;;7.50;99.90;;;;;;5097949;28;20032;-84
2021/04/21 01:36:23;;;;;;;19.45;12.30;;;7.30;99.90;;;;;;5096787;28;20035;-84
2021/04/21 01:39:03;;;;;;;19.23;11.80;;;7.30;99.90;;;;;;5113631;28;20472;-84
2021/04/21 01:41:43;;;;;;;21.27;12.40;;;7.30;99.90;;;;;;5106913;28;20031;-84
2021/04/21 01:44:22;;;;;;;22.92;12.05;;;7.50;99.90;;;;;;5108055;28;20427;-84
2021/04/21 01:47:17;;;;;;;20.58;12.50;;;7.00;99.90;;;;;;5093044;28;20020;-84
2021/04/21 01:50:16;;;;;;;21.37;11.83;;;7.30;99.90;;;;;;5098869;28;20031;-84
2021/04/21 01:53:19;;;;;;;19.10;12.05;;;7.10;99.90;;;;;;5096647;28;20032;-83
2021/04/21 01:55:51;;;;;;;19.83;12.97;;;7.10;99.90;;;;;;5084762;28;20108;-83
2021/04/21 01:58:41;;;;;;;20.20;11.98;;;7.20;99.90;;;;;;5112283;28;20043;-84
2021/04/21 02:01:41;;;;;;;19.50;12.20;;;7.00;99.90;;;;;;5102306;28;20082;-83
2021/04/21 02:04:40;;;;;;;19.83;12.52;;;7.00;99.90;;;;;;5093362;28;20106;-84
2021/04/21 02:07:20;;;;;;;21.53;12.17;;;7.00;99.90;;;;;;5100981;28;20036;-84
2021/04/21 02:10:14;;;;;;;21.33;12.15;;;7.00;99.90;;;;;;5103172;28;20032;-84
2021/04/21 02:13:15;;;;;;;20.43;13.40;;;7.00;99.90;;;;;;5106561;28;20039;-84
2021/04/21 02:16:11;;;;;;;19.58;11.60;;;7.00;99.90;;;;;;5085378;28;20031;-84
2021/04/21 02:19:15;;;;;;;23.83;12.70;;;7.00;99.90;;;;;;5091061;28;20511;-84
2021/04/21 02:22:17;;;;;;;21.67;13.10;;;7.00;99.90;;;;;;5097356;28;20036;-84
2021/04/21 02:25:22;;;;;;;17.05;10.60;;;6.90;99.90;;;;;;5109652;28;20039;-84
2021/04/21 02:28:38;;;;;;;17.83;11.67;;;6.90;99.90;;;;;;5081516;28;20039;-84
2021/04/21 02:31:36;;;;;;;21.10;12.87;;;6.80;99.90;;;;;;5098988;28;20032;-84
2021/04/21 02:34:36;;;;;;;22.10;12.87;;;6.80;99.90;;;;;;5103977;28;20016;-84
2021/04/21 02:37:17;;;;;;;22.37;12.80;;;6.60;99.90;;;;;;5092120;28;20496;-84
2021/04/21 02:40:17;;;;;;;20.20;12.03;;;6.60;99.90;;;;;;5117817;28;20032;-84
2021/04/21 02:43:20;;;;;;;22.13;13.17;;;6.80;99.90;;;;;;5105626;28;20094;-83
2021/04/21 02:46:21;;;;;;;22.42;13.30;;;6.60;99.90;;;;;;5097040;28;20405;-84
2021/04/21 02:49:28;;;;;;;22.80;13.40;;;6.60;99.90;;;;;;5096699;28;20155;-84
2021/04/21 02:52:25;;;;;;;23.87;13.43;;;6.60;99.90;;;;;;5096443;28;20376;-84
2021/04/21 02:55:24;;;;;;;22.73;13.40;;;6.60;99.90;;;;;;5099449;27;20060;-84
2021/04/21 02:58:28;;;;;;;22.43;13.17;;;6.60;99.90;;;;;;5100648;28;20032;-83
2021/04/21 03:01:41;;;;;;;23.43;14.27;;;6.60;99.90;;;;;;5099422;28;20027;-84
2021/04/21 03:04:57;;;;;;;22.40;12.70;;;6.60;99.90;;;;;;5051621;28;20051;-84
2021/04/21 03:07:39;;;;;;;27.03;12.83;;;6.50;99.90;;;;;;5114796;28;20032;-84
2021/04/21 03:14:29;;;;;;;25.67;13.17;;;6.40;99.90;;;;;;5082793;28;20032;-84
2021/04/21 03:17:01;;;;;;;20.63;12.40;;;6.50;99.90;;;;;;5100777;28;20048;-84
2021/04/21 03:20:09;;;;;;;22.03;13.20;;;6.50;99.90;;;;;;5095385;28;20036;-84
2021/04/21 03:22:52;;;;;;;22.40;12.53;;;6.50;99.90;;;;;;5110047;27;20046;-84
2021/04/21 03:25:49;;;;;;;22.47;13.67;;;6.40;99.90;;;;;;5118370;28;20094;-84
2021/04/21 03:28:22;;;;;;;22.47;13.50;;;6.40;99.90;;;;;;5084187;28;20098;-84
2021/04/21 03:31:17;;;;;;;22.17;12.67;;;6.40;99.90;;;;;;5105761;28;20028;-84
2021/04/21 03:34:05;;;;;;;23.67;13.33;;;6.20;99.90;;;;;;5098373;28;20024;-84
2021/04/21 03:36:43;;;;;;;22.73;13.57;;;6.30;99.90;;;;;;5099791;28;20036;-83
2021/04/21 03:39:44;;;;;;;27.63;14.03;;;6.20;99.90;;;;;;5100922;28;20302;-84
2021/04/21 03:42:43;;;;;;;24.00;13.53;;;6.20;99.90;;;;;;5102208;28;20055;-84
2021/04/21 03:45:19;;;;;;;21.90;12.43;;;6.20;99.90;;;;;;5096635;28;20032;-84
2021/04/21 03:47:56;;;;;;;24.47;13.07;;;6.20;99.90;;;;;;5093432;28;20093;-84
2021/04/21 03:51:11;;;;;;;24.27;13.17;;;6.10;99.90;;;;;;5110918;28;20445;-84
2021/04/21 03:54:18;;;;;;;22.10;12.85;;;6.00;99.90;;;;;;5115221;27;20035;-84
2021/04/21 03:56:51;;;;;;;23.60;13.80;;;6.00;99.90;;;;;;5093078;28;20091;-84
2021/04/21 04:00:05;;;;;;;23.80;13.70;;;6.00;99.90;;;;;;5101598;28;20051;-84
2021/04/21 04:03:30;;;;;;;24.87;14.33;;;5.90;99.90;;;;;;5108224;28;20020;-84
2021/04/21 04:10:03;;;;;;;24.67;13.93;;;5.80;99.90;;;;;;5117909;28;20450;-84
2021/04/21 04:16:22;;;;;;;26.40;13.83;;;5.80;99.90;;;;;;4971647;28;20112;-84
2021/04/21 04:19:23;;;;;;;22.93;13.33;;;6.00;99.90;;;;;;5094150;28;20032;-84
2021/04/21 04:40:07;;;;;;;21.20;12.73;;;5.70;99.90;;;;;;4940905;29;20198;-84
2021/04/21 04:46:56;;;;;;;;;;;;;;;;;;;;;
2021/04/21 04:52:53;;;;;;;21.20;12.38;;;5.70;99.90;;;;;;4907471;29;20040;-84
2021/04/21 04:55:21;;;;;;;20.57;12.37;;;5.70;99.90;;;;;;5013771;28;20041;-83
2021/04/21 04:57:52;;;;;;;19.70;11.93;;;5.90;99.90;;;;;;5110601;28;20027;-84
2021/04/21 05:00:27;;;;;;;22.13;13.13;;;5.80;99.90;;;;;;5091367;28;20056;-84
2021/04/21 05:03:15;;;;;;;19.63;11.43;;;5.80;99.90;;;;;;5092308;28;20107;-84
2021/04/21 05:05:42;;;;;;;22.13;12.93;;;5.80;99.90;;;;;;5096311;28;20025;-84
2021/04/21 05:08:23;;;;;;;19.03;11.43;;;5.90;99.90;;;;;;5111773;28;20020;-84
2021/04/21 05:10:58;;;;;;;22.67;12.60;;;5.90;99.90;;;;;;5096593;28;20023;-84
2021/04/21 05:13:27;;;;;;;22.00;12.63;;;5.90;99.90;;;;;;5107187;28;20668;-84
2021/04/21 05:15:52;;;;;;;17.97;12.27;;;6.20;99.90;;;;;;5090451;28;20107;-84
2021/04/21 05:18:40;;;;;;;21.80;11.97;;;6.10;99.90;;;;;;5107095;28;20477;-84
2021/04/21 05:21:43;;;;;;;22.37;11.93;;;6.20;99.90;;;;;;5081635;28;20024;-84
2021/04/21 05:24:52;;;;;;;19.83;11.63;;;6.20;99.90;;;;;;5110805;28;20020;-84
2021/04/21 05:27:33;;;;;;;19.33;12.03;;;6.30;99.90;;;;;;5096447;27;20108;-84
2021/04/21 05:30:21;;;;;;;20.47;12.73;;;6.40;99.90;;;;;;5095939;28;20032;-84
2021/04/21 05:33:09;;;;;;;19.27;12.13;;;6.60;99.90;;;;;;5046777;28;20111;-84
2021/04/21 05:35:46;;;;;;;19.70;12.30;;;6.80;99.90;;;;;;5102232;28;20035;-84
2021/04/21 05:38:45;;;;;;;23.20;12.97;;;6.60;99.90;;;;;;5096309;28;20047;-84
2021/04/21 05:41:26;;;;;;;21.67;11.97;;;6.60;99.90;;;;;;5106142;28;20016;-84
2021/04/21 05:44:20;;;;;;;20.57;12.00;;;6.70;99.90;;;;;;5114934;28;20020;-83
2021/04/21 05:47:04;;;;;;;19.30;11.80;;;6.70;99.90;;;;;;5099556;28;20015;-83
2021/04/21 05:50:25;;;;;;;20.50;12.23;;;6.80;99.90;;;;;;5104025;28;20031;-84
2021/04/21 05:53:15;;;;;;;20.97;12.50;;;6.90;99.90;;;;;;5096277;28;20054;-83
2021/04/21 05:56:17;;;;;;;20.40;12.23;;;7.10;99.90;;;;;;5100502;28;20085;-84
2021/04/21 05:58:58;;;;;;;23.63;13.75;;;7.20;99.90;;;;;;5104192;28;20042;-83
2021/04/21 06:01:35;;;;;;;20.70;12.47;;;7.30;99.90;;;;;;5100310;28;20024;-83
2021/04/21 06:04:04;;;;;;;22.03;13.40;;;7.40;99.90;;;;;;5083038;28;20070;-84
2021/04/21 06:06:30;;;;;;;23.83;14.07;;;7.50;99.90;;;;;;5095246;28;20118;-84
2021/04/21 06:08:56;;;;;;;23.60;13.80;;;7.50;99.90;;;;;;5096954;28;20077;-84
2021/04/21 06:11:28;;;;;;;21.90;13.70;;;7.50;99.90;;;;;;5093787;28;20111;-84
2021/04/21 06:14:02;;;;;;;23.13;13.90;;;7.60;99.90;;;;;;5092465;28;20049;-84
2021/04/21 06:16:30;;;;;;;22.17;13.20;;;7.80;99.90;;;;;;5093880;28;20031;-84
2021/04/21 06:19:01;;;;;;;26.53;15.17;;;7.90;99.90;;;;;;5104807;28;20020;-84
2021/04/21 06:21:36;;;;;;;27.27;15.40;;;8.00;99.90;;;;;;5095873;28;20020;-84
2021/04/21 06:24:16;;;;;;;25.70;15.80;;;7.90;99.90;;;;;;5095085;28;20032;-84
2021/04/21 06:26:42;;;;;;;24.50;14.87;;;7.80;99.90;;;;;;5091825;28;20023;-83
2021/04/21 06:29:09;;;;;;;24.47;15.87;;;7.90;99.90;;;;;;5098663;28;20032;-83
2021/04/21 06:31:38;;;;;;;27.53;16.17;;;7.90;99.90;;;;;;5100114;28;20024;-83
2021/04/21 06:34:05;;;;;;;24.77;15.55;;;7.90;99.90;;;;;;5092943;28;20077;-83
2021/04/21 06:36:34;;;;;;;24.88;15.68;;;7.90;99.90;;;;;;5090104;28;20037;-83
2021/04/21 06:39:00;;;;;;;25.98;15.50;;;7.90;99.90;;;;;;5091445;28;20025;-83
2021/04/21 06:41:26;;;;;;;27.90;16.83;;;7.90;99.90;;;;;;5098948;28;20021;-83
2021/04/21 06:43:52;;;;;;;25.30;15.32;;;7.90;99.90;;;;;;5103113;28;20050;-83
2021/04/21 06:46:19;;;;;;;24.15;14.35;;;7.80;99.90;;;;;;5098987;28;20047;-84
2021/04/21 06:48:50;;;;;;;24.58;15.57;;;7.80;99.90;;;;;;5103857;28;20077;-83
2021/04/21 06:51:17;;;;;;;24.20;14.37;;;8.00;99.90;;;;;;5100291;28;20099;-86
2021/04/21 06:53:45;;;;;;;23.63;14.63;;;8.10;99.90;;;;;;5100016;28;20582;-85
2021/04/21 06:56:11;;;;;;;25.83;14.98;;;8.30;99.90;;;;;;5092269;28;20079;-86
2021/04/21 06:58:39;;;;;;;32.10;16.50;;;8.50;99.90;;;;;;5091198;28;20594;-85
2021/04/21 07:01:12;;;;;;;28.42;15.07;;;8.40;99.90;;;;;;5090633;28;20024;-85
2021/04/21 07:03:38;;;;;;;24.42;15.23;;;8.60;99.90;;;;;;5096795;28;20017;-86
2021/04/21 07:06:04;;;;;;;27.60;15.95;;;8.70;99.90;;;;;;5089120;28;20044;-87
2021/04/21 07:08:33;;;;;;;27.48;15.23;;;8.80;99.90;;;;;;5079092;28;20042;-87
2021/04/21 07:11:00;;;;;;;27.55;15.82;;;8.80;99.90;;;;;;5096332;28;20476;-85
2021/04/21 07:13:32;;;;;;;24.88;15.65;;;9.10;99.90;;;;;;5083500;28;20489;-85
2021/04/21 07:16:00;;;;;;;24.20;15.15;;;9.10;99.90;;;;;;5098340;28;20358;-85
2021/04/21 07:18:58;;;;;;;26.63;14.98;;;9.20;99.90;;;;;;5076784;28;20085;-86
2021/04/21 07:21:25;;;;;;;27.60;16.02;;;9.30;99.90;;;;;;5083758;28;20021;-86
2021/04/21 07:23:56;;;;;;;27.65;15.73;;;9.30;99.90;;;;;;5089497;28;20085;-87
2021/04/21 07:26:51;;;;;;;23.95;15.07;;;9.50;99.90;;;;;;5085561;28;20065;-86
2021/04/21 07:29:20;;;;;;;26.27;15.82;;;9.60;99.90;;;;;;5086967;28;20045;-85
2021/04/21 07:31:46;;;;;;;30.85;15.80;;;9.70;99.90;;;;;;5081612;28;20024;-86
2021/04/21 07:34:28;;;;;;;29.83;16.15;;;9.80;99.90;;;;;;5083450;28;20031;-86
2021/04/21 07:36:54;;;;;;;28.23;15.48;;;10.00;99.90;;;;;;5094059;28;20031;-89
2021/04/21 07:39:20;;;;;;;27.98;16.27;;;10.10;99.90;;;;;;5093550;28;20112;-88
2021/04/21 07:41:49;;;;;;;27.20;16.17;;;10.20;99.90;;;;;;5090776;28;20027;-89
2021/04/21 07:44:51;;;;;;;25.75;15.73;;;10.40;99.90;;;;;;5081760;28;20027;-88
2021/04/21 07:47:18;;;;;;;29.98;16.27;;;10.60;99.90;;;;;;5094336;28;20089;-89
2021/04/21 07:49:57;;;;;;;28.67;17.05;;;10.70;99.90;;;;;;5093817;28;20031;-87
2021/04/21 07:52:32;;;;;;;29.75;17.10;;;10.90;99.90;;;;;;5072307;28;20455;-87
2021/04/21 07:55:19;;;;;;;25.83;15.95;;;11.10;99.90;;;;;;5093232;28;20023;-89
2021/04/21 07:58:03;;;;;;;24.23;16.67;;;11.30;99.90;;;;;;5090302;28;20024;-88
2021/04/21 08:00:31;;;;;;;24.73;16.00;;;11.50;99.90;;;;;;5096479;28;20060;-88
2021/04/21 08:03:00;;;;;;;27.27;16.52;;;11.90;99.90;;;;;;5102826;28;20543;-88
2021/04/21 08:05:26;;;;;;;25.10;16.30;;;11.80;99.90;;;;;;5100217;28;20642;-88
2021/04/21 08:07:58;;;;;;;25.08;15.45;;;11.90;99.90;;;;;;5103497;28;20110;-89
2021/04/21 08:10:27;;;;;;;26.10;16.60;;;12.00;99.90;;;;;;5097193;28;20110;-89
2021/04/21 08:12:56;;;;;;;29.45;16.15;;;12.10;99.90;;;;;;5095841;28;20023;-89
2021/04/21 08:15:28;;;;;;;25.08;16.45;;;12.40;99.90;;;;;;5079713;28;20074;-89
2021/04/21 08:17:59;;;;;;;25.38;15.38;;;12.60;99.90;;;;;;5112014;28;20024;-89
2021/04/21 08:20:44;;;;;;;27.35;16.52;;;12.80;99.90;;;;;;5093872;28;20489;-89
2021/04/21 08:23:11;;;;;;;27.52;17.25;;;13.00;99.90;;;;;;5092430;28;20225;-89
2021/04/21 08:25:37;;;;;;;28.17;17.65;;;13.10;99.90;;;;;;5095823;28;20055;-90
2021/04/21 08:28:03;;;;;;;26.85;17.27;;;13.20;99.90;;;;;;5097239;28;20044;-90
2021/04/21 08:30:31;;;;;;;27.05;15.90;;;13.50;99.90;;;;;;5096529;28;20024;-90
2021/04/21 08:32:57;;;;;;;26.10;17.02;;;13.50;99.90;;;;;;5092687;28;20016;-91
2021/04/21 08:35:24;;;;;;;27.73;16.88;;;13.60;99.90;;;;;;5099194;28;20078;-90
2021/04/21 08:37:50;;;;;;;23.30;16.38;;;13.80;99.90;;;;;;5091736;28;20418;-88
2021/04/21 08:40:18;;;;;;;25.80;17.23;;;13.90;99.90;;;;;;5103498;28;20019;-90
2021/04/21 08:42:47;;;;;;;27.52;16.23;;;14.00;99.90;;;;;;5096567;28;20022;-89
2021/04/21 08:45:14;;;;;;;24.02;15.63;;;14.20;99.90;;;;;;5092447;28;20051;-88
2021/04/21 08:47:41;;;;;;;25.70;15.90;;;14.30;99.90;;;;;;5098740;28;20024;-88
2021/04/21 08:50:09;;;;;;;24.70;15.43;;;14.30;98.20;;;;;;5080793;28;20036;-89
2021/04/21 08:52:54;;;;;;;22.98;15.43;;;14.30;97.50;;;;;;5078232;28;20432;-88
2021/04/21 08:55:20;;;;;;;22.98;15.02;;;14.60;99.00;;;;;;5081348;28;20562;-89
2021/04/21 08:57:47;;;;;;;27.02;15.90;;;14.60;98.90;;;;;;5085506;28;20680;-88
2021/04/21 09:00:15;;;;;;;20.73;14.68;;;14.80;98.10;;;;;;5085182;28;20115;-90
2021/04/21 09:02:41;;;;;;;24.30;14.75;;;14.80;97.30;;;;;;5088300;28;20025;-91
2021/04/21 09:05:08;;;;;;;20.80;13.93;;;15.20;97.70;;;;;;5088137;28;20507;-92
2021/04/21 09:07:38;;;;;;;20.67;14.50;;;15.10;95.90;;;;;;5083697;28;20028;-89
2021/04/21 09:10:11;;;;;;;22.63;14.63;;;15.30;94.70;;;;;;5084929;28;20024;-89
2021/04/21 09:12:37;;;;;;;21.40;14.27;;;15.50;93.90;;;;;;5100695;28;20028;-89
2021/04/21 09:15:09;;;;;;;21.85;14.43;;;15.60;92.60;;;;;;5083623;28;20035;-89
2021/04/21 09:17:48;;;;;;;18.77;13.27;;;15.70;91.60;;;;;;5101913;28;20020;-88
2021/04/21 09:20:16;;;;;;;19.55;12.95;;;15.70;90.80;;;;;;5083231;28;20039;-89
2021/04/21 09:23:16;;;;;;;22.23;12.60;;;15.70;89.00;;;;;;5096618;28;20015;-87
2021/04/21 09:25:45;;;;;;;19.05;12.80;;;15.70;88.20;;;;;;5104484;28;20024;-87
2021/04/21 09:28:12;;;;;;;18.25;12.13;;;16.00;90.40;;;;;;5102805;28;20028;-87
2021/04/21 09:30:56;;;;;;;19.40;12.60;;;16.00;84.00;;;;;;5088724;28;20021;-87
2021/04/21 09:33:30;;;;;;;18.52;13.25;;;15.90;84.70;;;;;;5089681;28;20048;-90
2021/04/21 09:35:56;;;;;;;23.77;13.50;;;15.90;86.40;;;;;;5094017;28;20031;-89
2021/04/21 09:38:27;;;;;;;18.90;12.73;;;16.00;86.20;;;;;;5093681;28;20023;-88
2021/04/21 09:41:01;;;;;;;21.73;12.32;;;16.20;85.60;;;;;;5094572;28;20380;-89
2021/04/21 09:43:34;;;;;;;17.83;12.48;;;16.30;84.90;;;;;;5094166;28;20089;-89
2021/04/21 09:46:02;;;;;;;19.15;12.63;;;16.50;85.10;;;;;;5112742;28;20020;-90
2021/04/21 09:48:33;;;;;;;17.70;11.82;;;16.60;80.90;;;;;;5098943;28;20085;-88
2021/04/21 09:51:06;;;;;;;16.75;11.48;;;16.60;79.50;;;;;;5100205;28;20103;-91
2021/04/21 09:53:35;;;;;;;16.42;11.27;;;16.80;78.10;;;;;;5104685;28;20028;-89
2021/04/21 09:56:56;;;;;;;17.58;10.90;;;16.70;75.90;;;;;;5106969;28;20045;-90
2021/04/21 13:27:27;;;;;;;11.32;6.70;;;19.10;45.80;;;;;;5007051;28;20046;-87
2021/04/21 13:29:56;;;;;;;12.25;7.20;;;19.20;45.20;;;;;;4996961;28;20033;-87
2021/04/21 13:32:22;;;;;;;12.80;7.78;;;19.30;45.70;;;;;;4988185;28;20052;-87
2021/04/21 13:34:47;;;;;;;10.80;7.60;;;19.40;45.80;;;;;;5004034;28;20348;-86
2021/04/21 13:37:13;;;;;;;10.75;7.55;;;19.30;45.50;;;;;;5003545;28;20112;-87
2021/04/21 13:39:38;;;;;;;10.52;7.40;;;19.10;45.60;;;;;;5023412;28;20459;-85
2021/04/21 13:42:05;;;;;;;10.65;7.65;;;19.40;45.60;;;;;;5010091;28;20072;-86
2021/04/21 13:44:31;;;;;;;9.50;6.88;;;19.90;44.80;;;;;;4983629;28;20406;-87
2021/04/21 13:46:57;;;;;;;10.73;7.22;;;20.00;44.70;;;;;;5012197;28;20026;-86
2021/04/21 13:49:24;;;;;;;9.55;6.50;;;20.10;45.20;;;;;;5005199;28;20034;-86
2021/04/21 13:51:50;;;;;;;10.57;6.50;;;20.40;44.10;;;;;;4984284;28;20502;-86
2021/04/21 13:54:16;;;;;;;11.70;6.55;;;20.60;43.90;;;;;;5007568;28;20037;-86
2021/04/21 13:56:42;;;;;;;10.18;6.28;;;20.30;43.60;;;;;;5003352;28;20026;-85
2021/04/21 13:59:08;;;;;;;10.55;6.10;;;20.00;44.50;;;;;;4995028;28;20057;-85
2021/04/21 14:01:35;;;;;;;9.07;6.05;;;19.80;44.80;;;;;;4992050;28;20030;-85
2021/04/21 14:04:02;;;;;;;8.77;5.75;;;19.60;45.50;;;;;;4989788;28;20097;-87
2021/04/21 14:06:28;;;;;;;9.93;6.30;;;19.60;44.60;;;;;;5008473;28;20026;-87
2021/04/21 14:08:53;;;;;;;9.13;6.07;;;19.70;44.80;;;;;;5010531;28;20026;-87
2021/04/21 14:11:19;;;;;;;8.57;5.57;;;20.00;43.90;;;;;;4990190;28;20029;-86
2021/04/21 14:13:45;;;;;;;10.15;6.05;;;20.30;43.30;;;;;;5012127;28;20080;-86
2021/04/21 14:16:11;;;;;;;10.05;5.82;;;20.90;44.10;;;;;;5007532;28;20032;-85
2021/04/21 14:18:37;;;;;;;8.95;5.75;;;21.30;41.50;;;;;;4992364;28;20025;-86
2021/04/21 14:21:03;;;;;;;8.90;5.85;;;21.80;41.90;;;;;;5012843;28;20025;-87
2021/04/21 14:23:29;;;;;;;9.95;5.50;;;22.30;41.10;;;;;;5011207;28;20539;-87
2021/04/21 14:25:54;;;;;;;9.07;5.93;;;22.70;42.60;;;;;;4994605;28;20187;-87
2021/04/21 14:28:20;;;;;;;8.75;5.93;;;23.20;40.00;;;;;;4979909;28;20033;-87
2021/04/21 14:30:46;;;;;;;8.18;5.30;;;23.40;38.90;;;;;;4992423;28;20022;-87
2021/04/21 14:33:11;;;;;;;8.00;4.85;;;23.60;39.30;;;;;;4984771;28;20503;-86
2021/04/21 14:35:39;;;;;;;8.00;5.13;;;23.30;39.10;;;;;;4984468;28;20045;-87
2021/04/21 14:38:05;;;;;;;9.18;6.13;;;22.80;39.10;;;;;;4976313;28;20033;-87
2021/04/21 14:40:31;;;;;;;7.25;4.88;;;22.10;40.70;;;;;;4993984;28;20019;-85
2021/04/21 14:42:56;;;;;;;8.23;5.25;;;21.60;41.30;;;;;;5011437;28;20435;-87
2021/04/21 14:45:22;;;;;;;9.48;5.85;;;21.90;41.50;;;;;;4986973;28;20080;-87
2021/04/21 14:47:48;;;;;;;10.20;5.93;;;22.30;41.30;;;;;;4976255;28;20085;-86
2021/04/21 14:50:14;;;;;;;8.02;5.47;;;22.40;41.40;;;;;;4976558;28;20040;-88
2021/04/21 14:52:40;;;;;;;8.63;5.70;;;22.60;41.20;;;;;;4983297;28;20031;-89
2021/04/21 14:55:07;;;;;;;11.05;5.68;;;22.20;41.40;;;;;;5004478;28;20100;-88
2021/04/21 14:57:33;;;;;;;9.93;6.00;;;21.60;42.50;;;;;;5011562;28;20072;-88
2021/04/21 14:59:58;;;;;;;12.77;5.55;;;21.40;43.00;;;;;;5004144;28;20026;-88
2021/04/21 15:02:24;;;;;;;8.02;5.40;;;20.90;44.40;;;;;;5004191;28;20109;-87
2021/04/21 15:04:50;;;;;;;9.85;5.72;;;20.60;45.60;;;;;;4987413;28;20022;-89
2021/04/21 15:07:16;;;;;;;9.18;5.60;;;20.50;47.80;;;;;;4986877;28;20018;-88
2021/04/21 15:09:42;;;;;;;10.57;5.80;;;20.50;47.20;;;;;;5011340;28;20462;-89
2021/04/21 15:12:09;;;;;;;9.88;5.70;;;20.60;47.20;;;;;;4993924;28;20036;-88
2021/04/21 15:14:37;;;;;;;11.90;6.22;;;20.70;49.10;;;;;;4975718;28;20049;-88
2021/04/21 15:17:04;;;;;;;9.18;5.75;;;20.40;51.40;;;;;;4992912;28;20502;-88
2021/04/21 15:19:31;;;;;;;8.65;5.38;;;20.10;53.50;;;;;;4975225;28;20030;-88
2021/04/21 15:22:04;;;;;;;8.15;5.70;;;19.60;54.50;;;;;;5011268;28;20430;-88
2021/04/21 15:24:30;;;;;;;7.97;5.38;;;19.50;55.50;;;;;;5024031;23;20025;-89
2021/04/21 15:26:57;;;;;;;9.82;5.78;;;19.50;58.00;;;;;;4977031;28;20078;-87
2021/04/21 15:29:23;;;;;;;7.88;5.25;;;19.30;56.60;;;;;;4967777;28;20026;-88
2021/04/21 15:32:00;;;;;;;8.98;5.53;;;19.30;55.20;;;;;;4989714;28;20030;-88
2021/04/21 15:34:26;;;;;;;8.50;6.05;;;19.20;55.40;;;;;;4961100;28;20019;-88
2021/04/21 15:36:53;;;;;;;8.38;5.43;;;18.90;55.90;;;;;;4975596;28;20109;-87
2021/04/21 15:39:20;;;;;;;9.68;5.72;;;18.80;54.90;;;;;;4968187;28;20109;-88
2021/04/21 15:41:46;;;;;;;10.77;5.55;;;18.70;52.70;;;;;;4974569;28;20026;-86
2021/04/21 15:44:13;;;;;;;8.63;6.15;;;18.50;52.40;;;;;;4986060;28;20040;-87
2021/04/21 15:46:39;;;;;;;7.82;5.07;;;18.40;53.30;;;;;;4974004;28;20030;-87
2021/04/21 15:49:05;;;;;;;8.77;4.80;;;18.30;50.50;;;;;;4973910;28;20041;-86
2021/04/21 15:51:32;;;;;;;9.73;5.18;;;18.10;50.00;;;;;;4956868;28;20030;-86
2021/04/21 15:53:59;;;;;;;10.02;5.57;;;18.10;51.60;;;;;;4956911;28;20035;-87
2021/04/21 15:56:29;;;;;;;6.95;4.88;;;18.00;51.50;;;;;;4956520;28;20023;-86
2021/04/21 15:58:55;;;;;;;6.32;4.65;;;18.00;50.20;;;;;;4956124;28;20030;-87
2021/04/21 16:01:21;;;;;;;8.68;5.10;;;18.00;51.50;;;;;;4972611;28;20357;-86
2021/04/21 16:03:48;;;;;;;8.43;4.90;;;18.10;51.00;;;;;;4973026;28;20082;-87
2021/04/21 16:06:14;;;;;;;8.93;4.90;;;18.10;50.00;;;;;;4986827;28;20018;-88
2021/04/21 16:08:40;;;;;;;9.00;5.28;;;18.00;49.80;;;;;;4974042;28;20411;-88
2021/04/21 16:11:09;;;;;;;7.57;4.80;;;18.20;48.80;;;;;;4987678;28;20089;-87
2021/04/21 16:13:35;;;;;;;8.20;4.97;;;18.20;48.90;;;;;;4993634;28;20022;-87
2021/04/21 16:16:02;;;;;;;7.80;5.25;;;18.30;50.20;;;;;;5000009;28;20030;-87
2021/04/21 16:18:28;;;;;;;9.75;5.00;;;18.10;49.60;;;;;;4972736;28;20050;-88
2021/04/21 16:20:53;;;;;;;9.30;4.60;;;18.30;50.50;;;;;;4984215;28;20091;-87
2021/04/21 16:23:19;;;;;;;9.65;4.32;;;18.30;49.50;;;;;;4968525;28;20027;-87
2021/04/21 16:25:45;;;;;;;7.70;5.00;;;18.10;49.80;;;;;;4985383;28;20539;-87
2021/04/21 16:28:11;;;;;;;8.93;4.95;;;18.10;49.50;;;;;;4968745;28;20431;-87
2021/04/21 16:30:37;;;;;;;6.90;4.20;;;17.90;50.60;;;;;;4983961;28;20040;-87
2021/04/21 16:33:03;;;;;;;7.03;4.30;;;17.90;50.30;;;;;;4969503;28;20038;-88
2021/04/21 16:35:29;;;;;;;6.93;3.83;;;17.80;50.40;;;;;;4991499;28;20030;-87
2021/04/21 16:37:55;;;;;;;6.97;4.20;;;17.70;51.40;;;;;;4963758;28;20115;-88
2021/04/21 16:40:24;;;;;;;7.90;4.13;;;17.60;51.70;;;;;;4990214;28;20034;-87
2021/04/21 16:42:49;;;;;;;7.03;4.10;;;17.50;52.10;;;;;;4974651;28;20026;-88
2021/04/21 16:45:17;;;;;;;7.35;4.57;;;17.40;51.10;;;;;;4990853;28;20115;-87
2021/04/21 16:47:44;;;;;;;7.20;4.75;;;17.30;51.50;;;;;;4956740;28;20027;-87
2021/04/21 16:50:13;;;;;;;8.27;4.15;;;17.20;51.40;;;;;;4980938;28;20023;-87
2021/04/21 16:52:43;;;;;;;6.22;4.10;;;17.20;51.60;;;;;;4966612;28;20546;-87
2021/04/21 16:55:10;;;;;;;7.18;4.25;;;17.20;51.90;;;;;;4974702;28;20018;-87
2021/04/21 16:57:41;;;;;;;7.97;4.38;;;17.30;51.70;;;;;;4981723;28;20081;-87
2021/04/21 17:00:11;;;;;;;5.88;3.50;;;17.30;51.00;;;;;;4977212;28;20161;-87
2021/04/21 17:02:37;;;;;;;6.07;3.75;;;17.30;51.20;;;;;;4979358;28;20058;-87
2021/04/21 17:05:03;;;;;;;6.97;3.58;;;17.20;51.10;;;;;;4985689;28;20026;-88
2021/04/21 17:07:29;;;;;;;6.57;3.13;;;17.10;51.80;;;;;;4989035;28;20022;-87
2021/04/21 17:10:02;;;;;;;6.20;3.38;;;17.10;50.20;;;;;;4989787;28;20066;-88
2021/04/21 17:12:28;;;;;;;7.78;3.05;;;17.00;50.30;;;;;;4973680;28;20057;-89
2021/04/21 17:15:05;;;;;;;6.22;3.30;;;16.90;50.60;;;;;;4972008;28;20054;-89
2021/04/21 17:17:31;;;;;;;5.65;3.40;;;16.90;51.20;;;;;;4973492;28;20031;-88
2021/04/21 17:20:14;;;;;;;7.95;3.60;;;16.80;51.60;;;;;;4993719;28;20043;-88
2021/04/21 17:22:41;;;;;;;6.75;3.53;;;16.70;51.60;;;;;;4991019;28;20042;-88
2021/04/21 17:25:11;;;;;;;6.55;3.13;;;16.70;51.80;;;;;;4990642;28;20109;-88